Central Wisconsin Airport Mosinee US
ICAO: KCWA
IATA: CWA
Category: Medium
Scheduled Services: No

Elevation: 1277 ft
TransAlt. 18000 ft.

Airport Communications:
ATIS:127.45
AWOS 3:127.45
MINNEAPOLIS CNTR:124.4
CTAF:119.75
GND:121.9
GREEN BAY RDO:122.525
TWR:119.75
UNICOM:122.95

KCWA Zoom In..

Runways:

(A) RW 08 length 7648 ft width 150 ft
ILS 110.30 / hdg 77

(B) RW 17 length 6501 ft width 150 ft
---- / hdg 170

(C) RW 26 length 7648 ft width 150 ft
---- / hdg 257

(D) RW 35 length 6501 ft width 150 ft
ILS 110.90 / hdg 350

Location; KCWA
Day. 25 / Time. 11.45 Zulu
* Altimeter: 30.20
* Temperature: 01° c. 33.8°f.
* Wind from: 360° Speed 06 kn.
Dewpoint: -01° c.
Visibility: 10 Statute Miles.
Clouds: Clear (manual report).

KCWA 251145Z 36006KT 10SM SKC 01/M01 A3020


Wind From 360°
Speed 06 kn.

  YouTube Music Video
 
jpsmedia.com for Web Design  worldairports.se 2018   terms of use